Houston, Texas
Current Conditions -  °F | °C
As of 1:15 PM on Thursday 27 Nov 2014 (Local Time) from KMCJ Reporting Station
Clear Clear  
Wind Chill: 19°   Ceiling: Unl
Heat Index: 19°   Visibility: 10mi
Dew Point: -2°   Wind: 0mph
Humidity: 24%   Direction: NA
Pressure: 30.4"   Gusts: NA
Location:  29.76°N, 95.37°W
Report Text: KMCJ 271915Z AUTO 00000KT 10SM CLR 19/M02 A3040 RMK AO1
Loading
Personal Weather Stations






























Interactive Weather Map New forecast layout! Learn more

10-Day Weather Forecast

Advertisements
Track Severe Weather on mobile